Terminal Aerodrome Forecast
Issued by NWS

Home | Current Version | Previous Version | Text Only | Print | Product List | Glossary On
Versions: 1 2 3 4 5 6 7 8 9 10 11 12 13
000
FTUS44 KCRP 262339
TAFLRD
TAF
KLRD 262339Z 2700/2724 15010KT P6SM FEW040 SCT250
     FM270200 13015G21KT P6SM SCT250
     FM270800 15011KT P6SM SCT015
      TEMPO 2711/2715 BKN015
     FM271500 16012KT P6SM SCT025 BKN250
     FM272000 14013G19KT P6SM SCT250=

USA.gov is the U.S. government's official web portal to all federal, state and local government web resources and services.